sensor_id;sensor_type;location;lat;lon;timestamp;P1;durP1;ratioP1;P2;durP2;ratioP2
77324;SDS011;66387;53.440;10.390;2023-09-12T00:00:02;14.65;;;10.07;;
77324;SDS011;66387;53.440;10.390;2023-09-12T00:02:30;14.93;;;10.57;;
77324;SDS011;66387;53.440;10.390;2023-09-12T00:04:55;11.75;;;10.32;;
77324;SDS011;66387;53.440;10.390;2023-09-12T00:07:21;10.93;;;8.97;;
77324;SDS011;66387;53.440;10.390;2023-09-12T00:09:46;12.30;;;9.43;;
77324;SDS011;66387;53.440;10.390;2023-09-12T00:12:13;10.67;;;9.13;;
77324;SDS011;66387;53.440;10.390;2023-09-12T00:14:39;11.63;;;9.30;;
77324;SDS011;66387;53.440;10.390;2023-09-12T00:17:04;13.23;;;10.93;;
77324;SDS011;66387;53.440;10.390;2023-09-12T00:19:30;12.83;;;9.70;;
77324;SDS011;66387;53.440;10.390;2023-09-12T00:21:55;12.23;;;10.13;;
77324;SDS011;66387;53.440;10.390;2023-09-12T00:24:20;11.53;;;10.07;;
77324;SDS011;66387;53.440;10.390;2023-09-12T00:26:46;10.23;;;8.83;;
77324;SDS011;66387;53.440;10.390;2023-09-12T00:29:11;13.27;;;9.83;;
77324;SDS011;66387;53.440;10.390;2023-09-12T00:31:36;13.20;;;10.65;;
77324;SDS011;66387;53.440;10.390;2023-09-12T00:34:02;15.00;;;11.48;;
77324;SDS011;66387;53.440;10.390;2023-09-12T00:36:28;14.87;;;12.17;;
77324;SDS011;66387;53.440;10.390;2023-09-12T00:38:53;15.98;;;12.52;;
77324;SDS011;66387;53.440;10.390;2023-09-12T00:41:18;18.67;;;14.53;;
77324;SDS011;66387;53.440;10.390;2023-09-12T00:43:43;17.83;;;15.63;;
77324;SDS011;66387;53.440;10.390;2023-09-12T00:46:09;20.93;;;15.73;;
77324;SDS011;66387;53.440;10.390;2023-09-12T00:48:34;22.77;;;18.33;;
77324;SDS011;66387;53.440;10.390;2023-09-12T00:51:02;17.98;;;15.75;;
77324;SDS011;66387;53.440;10.390;2023-09-12T00:53:29;24.48;;;17.40;;
77324;SDS011;66387;53.440;10.390;2023-09-12T00:55:56;21.17;;;18.87;;
77324;SDS011;66387;53.440;10.390;2023-09-12T00:58:23;22.00;;;18.15;;
77324;SDS011;66387;53.440;10.390;2023-09-12T01:00:50;24.38;;;18.33;;
77324;SDS011;66387;53.440;10.390;2023-09-12T01:03:15;22.87;;;20.20;;
77324;SDS011;66387;53.440;10.390;2023-09-12T01:05:41;25.58;;;21.13;;
77324;SDS011;66387;53.440;10.390;2023-09-12T01:08:07;26.65;;;22.13;;
77324;SDS011;66387;53.440;10.390;2023-09-12T01:10:33;25.33;;;20.87;;
77324;SDS011;66387;53.440;10.390;2023-09-12T01:12:58;27.27;;;22.60;;
77324;SDS011;66387;53.440;10.390;2023-09-12T01:15:24;27.23;;;23.73;;
77324;SDS011;66387;53.440;10.390;2023-09-12T01:17:49;26.55;;;21.30;;
77324;SDS011;66387;53.440;10.390;2023-09-12T01:20:16;29.35;;;23.33;;
77324;SDS011;66387;53.440;10.390;2023-09-12T01:28:22;36.08;;;25.65;;
77324;SDS011;66387;53.440;10.390;2023-09-12T01:30:50;34.83;;;25.33;;
77324;SDS011;66387;53.440;10.390;2023-09-12T01:33:16;35.33;;;25.30;;
77324;SDS011;66387;53.440;10.390;2023-09-12T01:35:42;35.08;;;25.38;;
77324;SDS011;66387;53.440;10.390;2023-09-12T01:38:08;36.00;;;26.05;;
77324;SDS011;66387;53.440;10.390;2023-09-12T01:40:35;34.27;;;26.47;;
77324;SDS011;66387;53.440;10.390;2023-09-12T01:43:11;35.95;;;27.13;;
77324;SDS011;66387;53.440;10.390;2023-09-12T01:45:44;34.53;;;26.80;;
77324;SDS011;66387;53.440;10.390;2023-09-12T01:48:12;29.95;;;25.48;;
77324;SDS011;66387;53.440;10.390;2023-09-12T01:50:38;30.23;;;23.25;;
77324;SDS011;66387;53.440;10.390;2023-09-12T01:53:03;33.17;;;23.70;;
77324;SDS011;66387;53.440;10.390;2023-09-12T01:55:29;34.17;;;26.52;;
77324;SDS011;66387;53.440;10.390;2023-09-12T01:57:55;35.17;;;25.30;;
77324;SDS011;66387;53.440;10.390;2023-09-12T02:02:48;29.85;;;22.85;;
77324;SDS011;66387;53.440;10.390;2023-09-12T02:05:14;29.95;;;23.00;;
77324;SDS011;66387;53.440;10.390;2023-09-12T02:07:45;33.70;;;23.75;;
77324;SDS011;66387;53.440;10.390;2023-09-12T02:10:11;31.20;;;24.58;;
77324;SDS011;66387;53.440;10.390;2023-09-12T02:12:37;35.67;;;26.77;;
77324;SDS011;66387;53.440;10.390;2023-09-12T02:15:03;34.38;;;25.05;;
77324;SDS011;66387;53.440;10.390;2023-09-12T02:17:29;35.15;;;27.33;;
77324;SDS011;66387;53.440;10.390;2023-09-12T02:19:54;35.33;;;26.40;;
77324;SDS011;66387;53.440;10.390;2023-09-12T02:22:19;33.57;;;25.63;;
77324;SDS011;66387;53.440;10.390;2023-09-12T02:24:45;36.92;;;28.05;;
77324;SDS011;66387;53.440;10.390;2023-09-12T02:27:10;34.13;;;26.23;;
77324;SDS011;66387;53.440;10.390;2023-09-12T02:29:36;38.00;;;28.77;;
77324;SDS011;66387;53.440;10.390;2023-09-12T02:34:28;35.73;;;25.00;;
77324;SDS011;66387;53.440;10.390;2023-09-12T02:36:53;38.40;;;28.27;;
77324;SDS011;66387;53.440;10.390;2023-09-12T02:39:18;37.30;;;29.07;;
77324;SDS011;66387;53.440;10.390;2023-09-12T02:41:44;40.33;;;27.40;;
77324;SDS011;66387;53.440;10.390;2023-09-12T02:44:09;37.60;;;27.37;;
77324;SDS011;66387;53.440;10.390;2023-09-12T02:46:36;38.20;;;27.37;;
77324;SDS011;66387;53.440;10.390;2023-09-12T02:49:02;36.58;;;28.05;;
77324;SDS011;66387;53.440;10.390;2023-09-12T02:51:27;36.00;;;26.40;;
77324;SDS011;66387;53.440;10.390;2023-09-12T02:53:53;38.28;;;28.67;;
77324;SDS011;66387;53.440;10.390;2023-09-12T02:56:18;44.57;;;28.47;;
77324;SDS011;66387;53.440;10.390;2023-09-12T02:58:46;43.73;;;29.10;;
77324;SDS011;66387;53.440;10.390;2023-09-12T03:01:15;41.42;;;30.08;;
77324;SDS011;66387;53.440;10.390;2023-09-12T03:03:41;48.10;;;35.22;;
77324;SDS011;66387;53.440;10.390;2023-09-12T03:06:06;49.40;;;33.97;;
77324;SDS011;66387;53.440;10.390;2023-09-12T03:08:31;46.37;;;32.90;;
77324;SDS011;66387;53.440;10.390;2023-09-12T03:10:57;49.77;;;32.63;;
77324;SDS011;66387;53.440;10.390;2023-09-12T03:13:26;52.83;;;35.75;;
77324;SDS011;66387;53.440;10.390;2023-09-12T03:15:51;50.33;;;34.95;;
77324;SDS011;66387;53.440;10.390;2023-09-12T03:18:17;48.33;;;33.72;;
77324;SDS011;66387;53.440;10.390;2023-09-12T03:20:42;62.53;;;39.00;;
77324;SDS011;66387;53.440;10.390;2023-09-12T03:23:08;51.73;;;34.53;;
77324;SDS011;66387;53.440;10.390;2023-09-12T03:25:37;55.15;;;36.65;;
77324;SDS011;66387;53.440;10.390;2023-09-12T03:28:03;52.45;;;36.55;;
77324;SDS011;66387;53.440;10.390;2023-09-12T03:30:29;51.90;;;36.28;;
77324;SDS011;66387;53.440;10.390;2023-09-12T03:32:54;53.93;;;38.73;;
77324;SDS011;66387;53.440;10.390;2023-09-12T03:35:19;57.67;;;38.80;;
77324;SDS011;66387;53.440;10.390;2023-09-12T03:37:45;59.17;;;35.77;;
77324;SDS011;66387;53.440;10.390;2023-09-12T03:40:10;57.73;;;37.23;;
77324;SDS011;66387;53.440;10.390;2023-09-12T03:42:36;61.20;;;39.47;;
77324;SDS011;66387;53.440;10.390;2023-09-12T03:45:01;56.58;;;35.17;;
77324;SDS011;66387;53.440;10.390;2023-09-12T03:47:28;60.50;;;38.75;;
77324;SDS011;66387;53.440;10.390;2023-09-12T03:49:53;63.70;;;40.70;;
77324;SDS011;66387;53.440;10.390;2023-09-12T03:52:18;59.93;;;38.53;;
77324;SDS011;66387;53.440;10.390;2023-09-12T03:54:43;57.70;;;37.40;;
77324;SDS011;66387;53.440;10.390;2023-09-12T03:57:09;59.13;;;36.53;;
77324;SDS011;66387;53.440;10.390;2023-09-12T03:59:34;47.63;;;33.50;;
77324;SDS011;66387;53.440;10.390;2023-09-12T04:02:01;52.93;;;35.37;;
77324;SDS011;66387;53.440;10.390;2023-09-12T04:04:27;53.28;;;35.45;;
77324;SDS011;66387;53.440;10.390;2023-09-12T04:06:52;52.23;;;34.87;;
77324;SDS011;66387;53.440;10.390;2023-09-12T04:09:18;49.57;;;33.70;;
77324;SDS011;66387;53.440;10.390;2023-09-12T04:11:43;51.30;;;35.53;;
77324;SDS011;66387;53.440;10.390;2023-09-12T04:14:08;47.50;;;32.93;;
77324;SDS011;66387;53.440;10.390;2023-09-12T04:16:33;48.20;;;35.03;;
77324;SDS011;66387;53.440;10.390;2023-09-12T04:18:59;47.80;;;33.80;;
77324;SDS011;66387;53.440;10.390;2023-09-12T04:21:24;54.60;;;35.17;;
77324;SDS011;66387;53.440;10.390;2023-09-12T04:23:49;52.90;;;34.80;;
77324;SDS011;66387;53.440;10.390;2023-09-12T04:26:15;52.50;;;33.85;;
77324;SDS011;66387;53.440;10.390;2023-09-12T04:28:40;49.83;;;34.23;;
77324;SDS011;66387;53.440;10.390;2023-09-12T04:31:05;55.92;;;35.45;;
77324;SDS011;66387;53.440;10.390;2023-09-12T04:33:31;60.93;;;38.23;;
77324;SDS011;66387;53.440;10.390;2023-09-12T04:36:03;52.83;;;36.37;;
77324;SDS011;66387;53.440;10.390;2023-09-12T04:38:28;55.28;;;37.30;;
77324;SDS011;66387;53.440;10.390;2023-09-12T04:40:54;52.72;;;33.78;;
77324;SDS011;66387;53.440;10.390;2023-09-12T04:43:27;57.47;;;34.60;;
77324;SDS011;66387;53.440;10.390;2023-09-12T04:45:52;59.13;;;34.87;;
77324;SDS011;66387;53.440;10.390;2023-09-12T04:48:18;60.17;;;36.30;;
77324;SDS011;66387;53.440;10.390;2023-09-12T04:50:43;55.97;;;34.13;;
77324;SDS011;66387;53.440;10.390;2023-09-12T04:53:08;58.53;;;33.90;;
77324;SDS011;66387;53.440;10.390;2023-09-12T04:55:37;54.63;;;35.17;;
77324;SDS011;66387;53.440;10.390;2023-09-12T04:58:04;52.30;;;32.97;;
77324;SDS011;66387;53.440;10.390;2023-09-12T05:00:30;58.60;;;34.60;;
77324;SDS011;66387;53.440;10.390;2023-09-12T05:02:55;56.83;;;40.25;;
77324;SDS011;66387;53.440;10.390;2023-09-12T05:05:20;55.23;;;36.60;;
77324;SDS011;66387;53.440;10.390;2023-09-12T05:07:45;60.03;;;37.30;;
77324;SDS011;66387;53.440;10.390;2023-09-12T05:10:11;57.97;;;33.33;;
77324;SDS011;66387;53.440;10.390;2023-09-12T05:12:37;54.50;;;36.35;;
77324;SDS011;66387;53.440;10.390;2023-09-12T05:15:02;57.78;;;37.22;;
77324;SDS011;66387;53.440;10.390;2023-09-12T05:17:28;54.83;;;33.72;;
77324;SDS011;66387;53.440;10.390;2023-09-12T05:19:53;59.67;;;36.00;;
77324;SDS011;66387;53.440;10.390;2023-09-12T05:22:18;50.93;;;35.30;;
77324;SDS011;66387;53.440;10.390;2023-09-12T05:24:44;52.42;;;34.45;;
77324;SDS011;66387;53.440;10.390;2023-09-12T05:27:10;53.50;;;33.17;;
77324;SDS011;66387;53.440;10.390;2023-09-12T05:29:36;50.30;;;34.33;;
77324;SDS011;66387;53.440;10.390;2023-09-12T05:32:01;49.33;;;33.17;;
77324;SDS011;66387;53.440;10.390;2023-09-12T05:34:26;51.97;;;31.33;;
77324;SDS011;66387;53.440;10.390;2023-09-12T05:36:52;52.87;;;36.03;;
77324;SDS011;66387;53.440;10.390;2023-09-12T05:39:17;51.65;;;33.70;;
77324;SDS011;66387;53.440;10.390;2023-09-12T05:41:43;49.03;;;34.45;;
77324;SDS011;66387;53.440;10.390;2023-09-12T05:44:08;46.47;;;31.43;;
77324;SDS011;66387;53.440;10.390;2023-09-12T05:46:33;47.73;;;31.33;;
77324;SDS011;66387;53.440;10.390;2023-09-12T05:48:59;45.83;;;29.50;;
77324;SDS011;66387;53.440;10.390;2023-09-12T05:51:24;46.73;;;29.87;;
77324;SDS011;66387;53.440;10.390;2023-09-12T05:53:49;44.43;;;30.17;;
77324;SDS011;66387;53.440;10.390;2023-09-12T05:56:14;46.07;;;33.33;;
77324;SDS011;66387;53.440;10.390;2023-09-12T05:58:40;47.27;;;29.97;;
77324;SDS011;66387;53.440;10.390;2023-09-12T06:01:07;45.97;;;29.92;;
77324;SDS011;66387;53.440;10.390;2023-09-12T06:03:33;48.33;;;30.73;;
77324;SDS011;66387;53.440;10.390;2023-09-12T06:05:58;45.80;;;30.63;;
77324;SDS011;66387;53.440;10.390;2023-09-12T06:08:24;44.33;;;31.03;;
77324;SDS011;66387;53.440;10.390;2023-09-12T06:10:49;49.88;;;32.00;;
77324;SDS011;66387;53.440;10.390;2023-09-12T06:13:18;49.97;;;32.38;;
77324;SDS011;66387;53.440;10.390;2023-09-12T06:15:44;46.65;;;30.70;;
77324;SDS011;66387;53.440;10.390;2023-09-12T06:18:09;49.60;;;32.40;;
77324;SDS011;66387;53.440;10.390;2023-09-12T06:20:34;48.53;;;30.87;;
77324;SDS011;66387;53.440;10.390;2023-09-12T06:22:59;47.80;;;31.17;;
77324;SDS011;66387;53.440;10.390;2023-09-12T06:25:25;50.53;;;32.73;;
77324;SDS011;66387;53.440;10.390;2023-09-12T06:27:50;51.20;;;32.03;;
77324;SDS011;66387;53.440;10.390;2023-09-12T06:30:15;47.80;;;32.80;;
77324;SDS011;66387;53.440;10.390;2023-09-12T06:32:41;44.38;;;30.90;;
77324;SDS011;66387;53.440;10.390;2023-09-12T06:35:06;49.00;;;34.33;;
77324;SDS011;66387;53.440;10.390;2023-09-12T06:37:32;52.00;;;34.22;;
77324;SDS011;66387;53.440;10.390;2023-09-12T06:39:57;49.40;;;32.33;;
77324;SDS011;66387;53.440;10.390;2023-09-12T06:42:23;47.47;;;29.57;;
77324;SDS011;66387;53.440;10.390;2023-09-12T06:44:48;50.10;;;31.63;;
77324;SDS011;66387;53.440;10.390;2023-09-12T06:47:13;45.93;;;30.77;;
77324;SDS011;66387;53.440;10.390;2023-09-12T06:49:38;47.97;;;32.37;;
77324;SDS011;66387;53.440;10.390;2023-09-12T06:52:04;47.03;;;28.97;;
77324;SDS011;66387;53.440;10.390;2023-09-12T06:54:29;45.63;;;27.90;;
77324;SDS011;66387;53.440;10.390;2023-09-12T06:56:55;46.53;;;28.57;;
77324;SDS011;66387;53.440;10.390;2023-09-12T06:59:20;49.90;;;28.87;;
77324;SDS011;66387;53.440;10.390;2023-09-12T07:01:45;40.97;;;27.97;;
77324;SDS011;66387;53.440;10.390;2023-09-12T07:04:10;40.47;;;27.30;;
77324;SDS011;66387;53.440;10.390;2023-09-12T07:06:36;42.30;;;27.40;;
77324;SDS011;66387;53.440;10.390;2023-09-12T07:09:01;48.23;;;30.57;;
77324;SDS011;66387;53.440;10.390;2023-09-12T07:11:28;47.70;;;30.98;;
77324;SDS011;66387;53.440;10.390;2023-09-12T07:13:53;51.97;;;30.97;;
77324;SDS011;66387;53.440;10.390;2023-09-12T07:16:18;48.37;;;30.87;;
77324;SDS011;66387;53.440;10.390;2023-09-12T07:18:45;41.35;;;28.30;;
77324;SDS011;66387;53.440;10.390;2023-09-12T07:21:11;48.22;;;31.02;;
77324;SDS011;66387;53.440;10.390;2023-09-12T07:23:37;52.60;;;32.05;;
77324;SDS011;66387;53.440;10.390;2023-09-12T07:26:02;46.93;;;32.97;;
77324;SDS011;66387;53.440;10.390;2023-09-12T07:28:28;50.03;;;32.90;;
77324;SDS011;66387;53.440;10.390;2023-09-12T07:30:53;48.80;;;32.13;;
77324;SDS011;66387;53.440;10.390;2023-09-12T07:33:19;51.88;;;33.35;;
77324;SDS011;66387;53.440;10.390;2023-09-12T07:35:46;48.92;;;31.08;;
77324;SDS011;66387;53.440;10.390;2023-09-12T07:38:11;50.97;;;33.35;;
77324;SDS011;66387;53.440;10.390;2023-09-12T07:40:37;49.45;;;33.65;;
77324;SDS011;66387;53.440;10.390;2023-09-12T07:43:02;51.10;;;32.63;;
77324;SDS011;66387;53.440;10.390;2023-09-12T07:45:28;47.25;;;30.75;;
77324;SDS011;66387;53.440;10.390;2023-09-12T07:47:54;45.50;;;32.97;;
77324;SDS011;66387;53.440;10.390;2023-09-12T07:50:20;51.40;;;34.47;;
77324;SDS011;66387;53.440;10.390;2023-09-12T07:52:45;49.80;;;32.53;;
77324;SDS011;66387;53.440;10.390;2023-09-12T07:55:10;50.83;;;33.80;;
77324;SDS011;66387;53.440;10.390;2023-09-12T07:57:35;51.27;;;31.57;;
77324;SDS011;66387;53.440;10.390;2023-09-12T08:00:01;49.92;;;32.05;;
77324;SDS011;66387;53.440;10.390;2023-09-12T08:02:35;46.83;;;30.40;;
77324;SDS011;66387;53.440;10.390;2023-09-12T08:05:00;46.83;;;30.70;;
77324;SDS011;66387;53.440;10.390;2023-09-12T08:07:26;44.35;;;29.90;;
77324;SDS011;66387;53.440;10.390;2023-09-12T08:09:52;41.90;;;30.37;;
77324;SDS011;66387;53.440;10.390;2023-09-12T08:12:22;45.60;;;31.17;;
77324;SDS011;66387;53.440;10.390;2023-09-12T08:17:15;42.17;;;26.50;;
77324;SDS011;66387;53.440;10.390;2023-09-12T08:19:41;41.03;;;27.85;;
77324;SDS011;66387;53.440;10.390;2023-09-12T08:22:07;41.58;;;28.63;;
77324;SDS011;66387;53.440;10.390;2023-09-12T08:24:34;41.75;;;27.88;;
77324;SDS011;66387;53.440;10.390;2023-09-12T08:27:00;40.08;;;27.00;;
77324;SDS011;66387;53.440;10.390;2023-09-12T08:29:25;41.15;;;26.60;;
77324;SDS011;66387;53.440;10.390;2023-09-12T08:31:52;41.90;;;26.98;;
77324;SDS011;66387;53.440;10.390;2023-09-12T08:34:18;44.75;;;25.63;;
77324;SDS011;66387;53.440;10.390;2023-09-12T08:36:43;40.35;;;26.02;;
77324;SDS011;66387;53.440;10.390;2023-09-12T08:39:11;36.45;;;25.17;;
77324;SDS011;66387;53.440;10.390;2023-09-12T08:41:38;42.58;;;27.15;;
77324;SDS011;66387;53.440;10.390;2023-09-12T08:44:04;40.23;;;26.27;;
77324;SDS011;66387;53.440;10.390;2023-09-12T08:46:30;38.47;;;25.48;;
77324;SDS011;66387;53.440;10.390;2023-09-12T08:48:56;44.42;;;28.15;;
77324;SDS011;66387;53.440;10.390;2023-09-12T08:51:25;44.35;;;28.85;;
77324;SDS011;66387;53.440;10.390;2023-09-12T08:53:51;39.67;;;26.33;;
77324;SDS011;66387;53.440;10.390;2023-09-12T08:56:17;35.72;;;24.42;;
77324;SDS011;66387;53.440;10.390;2023-09-12T08:58:43;34.97;;;25.30;;
77324;SDS011;66387;53.440;10.390;2023-09-12T09:01:09;35.00;;;27.15;;
77324;SDS011;66387;53.440;10.390;2023-09-12T09:03:37;33.13;;;24.17;;
77324;SDS011;66387;53.440;10.390;2023-09-12T09:06:04;34.15;;;24.67;;
77324;SDS011;66387;53.440;10.390;2023-09-12T09:08:30;34.70;;;24.20;;
77324;SDS011;66387;53.440;10.390;2023-09-12T09:10:57;34.47;;;25.50;;
77324;SDS011;66387;53.440;10.390;2023-09-12T09:13:23;33.10;;;26.90;;
77324;SDS011;66387;53.440;10.390;2023-09-12T09:15:48;38.35;;;26.05;;
77324;SDS011;66387;53.440;10.390;2023-09-12T09:18:14;37.33;;;26.70;;
77324;SDS011;66387;53.440;10.390;2023-09-12T09:20:39;33.20;;;23.73;;
77324;SDS011;66387;53.440;10.390;2023-09-12T09:23:06;30.63;;;23.55;;
77324;SDS011;66387;53.440;10.390;2023-09-12T09:25:34;33.90;;;23.15;;
77324;SDS011;66387;53.440;10.390;2023-09-12T09:28:16;30.20;;;22.98;;
77324;SDS011;66387;53.440;10.390;2023-09-12T09:30:46;29.70;;;22.98;;
77324;SDS011;66387;53.440;10.390;2023-09-12T09:33:13;28.45;;;23.85;;
77324;SDS011;66387;53.440;10.390;2023-09-12T09:35:42;30.20;;;22.15;;
77324;SDS011;66387;53.440;10.390;2023-09-12T09:38:08;27.00;;;21.77;;
77324;SDS011;66387;53.440;10.390;2023-09-12T09:40:34;28.83;;;21.20;;
77324;SDS011;66387;53.440;10.390;2023-09-12T09:43:00;28.33;;;20.73;;
77324;SDS011;66387;53.440;10.390;2023-09-12T09:45:28;29.20;;;23.83;;
77324;SDS011;66387;53.440;10.390;2023-09-12T09:47:57;30.85;;;24.45;;
77324;SDS011;66387;53.440;10.390;2023-09-12T09:50:24;34.58;;;23.23;;
77324;SDS011;66387;53.440;10.390;2023-09-12T09:52:54;26.33;;;21.23;;
77324;SDS011;66387;53.440;10.390;2023-09-12T09:55:20;30.40;;;23.05;;
77324;SDS011;66387;53.440;10.390;2023-09-12T09:57:45;32.37;;;22.87;;
77324;SDS011;66387;53.440;10.390;2023-09-12T10:00:11;33.23;;;24.03;;
77324;SDS011;66387;53.440;10.390;2023-09-12T10:02:39;25.58;;;22.58;;
77324;SDS011;66387;53.440;10.390;2023-09-12T10:05:05;28.38;;;22.35;;
77324;SDS011;66387;53.440;10.390;2023-09-12T10:07:34;29.27;;;23.73;;
77324;SDS011;66387;53.440;10.390;2023-09-12T10:10:02;29.13;;;21.63;;
77324;SDS011;66387;53.440;10.390;2023-09-12T10:12:30;30.27;;;24.25;;
77324;SDS011;66387;53.440;10.390;2023-09-12T10:14:57;26.13;;;22.05;;
77324;SDS011;66387;53.440;10.390;2023-09-12T10:17:26;33.10;;;24.45;;
77324;SDS011;66387;53.440;10.390;2023-09-12T10:19:56;32.38;;;24.98;;
77324;SDS011;66387;53.440;10.390;2023-09-12T10:22:33;30.30;;;22.95;;
77324;SDS011;66387;53.440;10.390;2023-09-12T10:25:04;31.63;;;21.70;;
77324;SDS011;66387;53.440;10.390;2023-09-12T10:27:31;33.38;;;25.15;;
77324;SDS011;66387;53.440;10.390;2023-09-12T10:29:58;33.85;;;25.52;;
77324;SDS011;66387;53.440;10.390;2023-09-12T10:32:24;30.77;;;23.38;;
77324;SDS011;66387;53.440;10.390;2023-09-12T10:34:51;28.42;;;22.15;;
77324;SDS011;66387;53.440;10.390;2023-09-12T10:37:17;26.58;;;21.50;;
77324;SDS011;66387;53.440;10.390;2023-09-12T10:39:46;31.45;;;24.30;;
77324;SDS011;66387;53.440;10.390;2023-09-12T10:42:13;28.45;;;22.23;;
77324;SDS011;66387;53.440;10.390;2023-09-12T10:44:41;29.67;;;21.65;;
77324;SDS011;66387;53.440;10.390;2023-09-12T10:47:09;27.92;;;22.80;;
77324;SDS011;66387;53.440;10.390;2023-09-12T10:49:34;30.38;;;23.48;;
77324;SDS011;66387;53.440;10.390;2023-09-12T10:52:02;26.65;;;21.35;;
77324;SDS011;66387;53.440;10.390;2023-09-12T10:54:37;26.02;;;21.50;;
77324;SDS011;66387;53.440;10.390;2023-09-12T10:59:32;30.67;;;23.23;;
77324;SDS011;66387;53.440;10.390;2023-09-12T11:02:45;30.38;;;22.38;;
77324;SDS011;66387;53.440;10.390;2023-09-12T11:04:59;27.40;;;20.98;;
77324;SDS011;66387;53.440;10.390;2023-09-12T11:07:43;27.88;;;21.75;;
77324;SDS011;66387;53.440;10.390;2023-09-12T11:12:39;25.58;;;20.90;;
77324;SDS011;66387;53.440;10.390;2023-09-12T11:15:06;26.70;;;20.98;;
77324;SDS011;66387;53.440;10.390;2023-09-12T11:20:08;26.35;;;20.95;;
77324;SDS011;66387;53.440;10.390;2023-09-12T11:22:38;27.05;;;20.58;;
77324;SDS011;66387;53.440;10.390;2023-09-12T11:27:44;27.70;;;18.85;;
77324;SDS011;66387;53.440;10.390;2023-09-12T11:30:16;27.17;;;18.20;;
77324;SDS011;66387;53.440;10.390;2023-09-12T11:32:43;23.08;;;18.80;;
77324;SDS011;66387;53.440;10.390;2023-09-12T11:35:11;24.17;;;18.33;;
77324;SDS011;66387;53.440;10.390;2023-09-12T11:37:38;22.77;;;19.05;;
77324;SDS011;66387;53.440;10.390;2023-09-12T11:42:40;21.58;;;17.52;;
77324;SDS011;66387;53.440;10.390;2023-09-12T11:45:11;22.17;;;17.02;;
77324;SDS011;66387;53.440;10.390;2023-09-12T11:47:43;24.35;;;17.90;;
77324;SDS011;66387;53.440;10.390;2023-09-12T11:50:25;21.25;;;17.50;;
77324;SDS011;66387;53.440;10.390;2023-09-12T11:52:59;19.75;;;16.38;;
77324;SDS011;66387;53.440;10.390;2023-09-12T11:55:24;19.25;;;15.93;;
77324;SDS011;66387;53.440;10.390;2023-09-12T11:57:50;21.90;;;16.10;;
77324;SDS011;66387;53.440;10.390;2023-09-12T12:00:15;20.43;;;16.70;;
77324;SDS011;66387;53.440;10.390;2023-09-12T12:02:44;21.42;;;16.73;;
77324;SDS011;66387;53.440;10.390;2023-09-12T12:05:10;18.65;;;15.98;;
77324;SDS011;66387;53.440;10.390;2023-09-12T12:07:35;18.48;;;15.48;;
77324;SDS011;66387;53.440;10.390;2023-09-12T12:10:00;18.70;;;15.00;;
77324;SDS011;66387;53.440;10.390;2023-09-12T12:12:26;20.93;;;17.27;;
77324;SDS011;66387;53.440;10.390;2023-09-12T12:14:51;19.20;;;15.20;;
77324;SDS011;66387;53.440;10.390;2023-09-12T12:17:16;18.30;;;15.80;;
77324;SDS011;66387;53.440;10.390;2023-09-12T12:19:44;18.70;;;15.77;;
77324;SDS011;66387;53.440;10.390;2023-09-12T12:22:11;19.13;;;14.80;;
77324;SDS011;66387;53.440;10.390;2023-09-12T12:24:39;18.80;;;14.25;;
77324;SDS011;66387;53.440;10.390;2023-09-12T12:27:10;19.52;;;14.80;;
77324;SDS011;66387;53.440;10.390;2023-09-12T12:29:36;16.48;;;14.30;;
77324;SDS011;66387;53.440;10.390;2023-09-12T12:32:04;22.42;;;14.77;;
77324;SDS011;66387;53.440;10.390;2023-09-12T12:34:30;16.70;;;13.27;;
77324;SDS011;66387;53.440;10.390;2023-09-12T12:36:55;15.88;;;13.50;;
77324;SDS011;66387;53.440;10.390;2023-09-12T12:39:21;17.80;;;13.38;;
77324;SDS011;66387;53.440;10.390;2023-09-12T12:41:47;14.15;;;12.40;;
77324;SDS011;66387;53.440;10.390;2023-09-12T12:44:15;18.55;;;13.50;;
77324;SDS011;66387;53.440;10.390;2023-09-12T12:46:49;15.80;;;13.38;;
77324;SDS011;66387;53.440;10.390;2023-09-12T12:49:18;15.18;;;12.57;;
77324;SDS011;66387;53.440;10.390;2023-09-12T12:51:45;14.93;;;12.52;;
77324;SDS011;66387;53.440;10.390;2023-09-12T12:54:11;13.88;;;12.35;;
77324;SDS011;66387;53.440;10.390;2023-09-12T12:56:36;15.70;;;11.90;;
77324;SDS011;66387;53.440;10.390;2023-09-12T12:59:03;14.10;;;12.63;;
77324;SDS011;66387;53.440;10.390;2023-09-12T13:01:33;16.25;;;12.93;;
77324;SDS011;66387;53.440;10.390;2023-09-12T13:03:59;17.73;;;14.45;;
77324;SDS011;66387;53.440;10.390;2023-09-12T13:06:25;17.83;;;13.23;;
77324;SDS011;66387;53.440;10.390;2023-09-12T13:08:52;15.05;;;12.88;;
77324;SDS011;66387;53.440;10.390;2023-09-12T13:11:18;15.75;;;14.05;;
77324;SDS011;66387;53.440;10.390;2023-09-12T13:13:44;15.50;;;13.52;;
77324;SDS011;66387;53.440;10.390;2023-09-12T13:16:12;15.07;;;12.95;;
77324;SDS011;66387;53.440;10.390;2023-09-12T13:18:38;15.73;;;13.30;;
77324;SDS011;66387;53.440;10.390;2023-09-12T13:21:04;16.73;;;12.98;;
77324;SDS011;66387;53.440;10.390;2023-09-12T13:23:33;14.52;;;13.02;;
77324;SDS011;66387;53.440;10.390;2023-09-12T13:26:00;17.27;;;13.48;;
77324;SDS011;66387;53.440;10.390;2023-09-12T13:28:25;16.20;;;13.45;;
77324;SDS011;66387;53.440;10.390;2023-09-12T13:30:51;16.00;;;13.47;;
77324;SDS011;66387;53.440;10.390;2023-09-12T13:33:17;15.73;;;12.52;;
77324;SDS011;66387;53.440;10.390;2023-09-12T13:35:42;15.00;;;12.80;;
77324;SDS011;66387;53.440;10.390;2023-09-12T13:38:08;14.90;;;12.15;;
77324;SDS011;66387;53.440;10.390;2023-09-12T13:40:38;14.00;;;11.88;;
77324;SDS011;66387;53.440;10.390;2023-09-12T13:43:04;14.80;;;12.57;;
77324;SDS011;66387;53.440;10.390;2023-09-12T13:45:30;14.02;;;11.68;;
77324;SDS011;66387;53.440;10.390;2023-09-12T13:47:56;14.03;;;10.93;;
77324;SDS011;66387;53.440;10.390;2023-09-12T13:50:23;12.38;;;10.82;;
77324;SDS011;66387;53.440;10.390;2023-09-12T13:52:48;13.63;;;11.13;;
77324;SDS011;66387;53.440;10.390;2023-09-12T13:55:14;14.87;;;11.13;;
77324;SDS011;66387;53.440;10.390;2023-09-12T13:57:40;13.02;;;11.60;;
77324;SDS011;66387;53.440;10.390;2023-09-12T14:00:06;12.75;;;10.00;;
77324;SDS011;66387;53.440;10.390;2023-09-12T14:02:33;11.48;;;9.77;;
77324;SDS011;66387;53.440;10.390;2023-09-12T14:04:58;10.77;;;9.67;;
77324;SDS011;66387;53.440;10.390;2023-09-12T14:07:23;13.43;;;10.43;;
77324;SDS011;66387;53.440;10.390;2023-09-12T14:09:49;13.77;;;10.40;;
77324;SDS011;66387;53.440;10.390;2023-09-12T14:12:14;11.88;;;9.48;;
77324;SDS011;66387;53.440;10.390;2023-09-12T14:14:40;11.60;;;8.43;;
77324;SDS011;66387;53.440;10.390;2023-09-12T14:17:05;10.07;;;9.07;;
77324;SDS011;66387;53.440;10.390;2023-09-12T14:19:31;12.53;;;9.60;;
77324;SDS011;66387;53.440;10.390;2023-09-12T14:21:56;8.53;;;7.63;;
77324;SDS011;66387;53.440;10.390;2023-09-12T14:24:22;11.90;;;10.70;;
77324;SDS011;66387;53.440;10.390;2023-09-12T14:26:47;10.77;;;9.05;;
77324;SDS011;66387;53.440;10.390;2023-09-12T14:29:13;11.57;;;9.48;;